sensor_id;sensor_type;location;lat;lon;timestamp;pressure;altitude;pressure_sealevel;temperature;humidity
13869;BME280;7004;48.206;16.402;2022-08-21T00:01:24;99409.78;;;18.94;93.12
13869;BME280;7004;48.206;16.402;2022-08-21T00:03:51;99414.59;;;18.90;92.28
13869;BME280;7004;48.206;16.402;2022-08-21T00:06:18;99417.56;;;18.61;93.53
13869;BME280;7004;48.206;16.402;2022-08-21T00:08:45;99408.75;;;18.69;94.04
13869;BME280;7004;48.206;16.402;2022-08-21T00:11:12;99403.06;;;18.28;95.34
13869;BME280;7004;48.206;16.402;2022-08-21T00:13:40;99402.53;;;18.42;93.81
13869;BME280;7004;48.206;16.402;2022-08-21T00:16:07;99397.28;;;18.32;95.35
13869;BME280;7004;48.206;16.402;2022-08-21T00:18:34;99398.78;;;18.53;93.98
13869;BME280;7004;48.206;16.402;2022-08-21T00:21:00;99392.09;;;18.57;93.75
13869;BME280;7004;48.206;16.402;2022-08-21T00:23:27;99392.56;;;18.26;95.55
13869;BME280;7004;48.206;16.402;2022-08-21T00:25:53;99390.69;;;18.45;95.15
13869;BME280;7004;48.206;16.402;2022-08-21T00:28:19;99397.03;;;18.26;96.47
13869;BME280;7004;48.206;16.402;2022-08-21T00:30:46;99381.41;;;18.39;95.75
13869;BME280;7004;48.206;16.402;2022-08-21T00:33:13;99384.06;;;19.09;92.67
13869;BME280;7004;48.206;16.402;2022-08-21T00:35:41;99388.09;;;18.35;95.59
13869;BME280;7004;48.206;16.402;2022-08-21T00:38:09;99379.63;;;18.22;96.12
13869;BME280;7004;48.206;16.402;2022-08-21T00:40:44;99380.31;;;18.24;96.00
13869;BME280;7004;48.206;16.402;2022-08-21T00:43:16;99379.00;;;18.28;95.82
13869;BME280;7004;48.206;16.402;2022-08-21T00:45:42;99379.63;;;18.22;95.29
13869;BME280;7004;48.206;16.402;2022-08-21T00:48:09;99383.19;;;18.30;94.74
13869;BME280;7004;48.206;16.402;2022-08-21T00:50:44;99384.34;;;18.28;94.86
13869;BME280;7004;48.206;16.402;2022-08-21T00:53:12;99382.22;;;18.31;94.37
13869;BME280;7004;48.206;16.402;2022-08-21T00:55:40;99383.28;;;18.21;95.18
13869;BME280;7004;48.206;16.402;2022-08-21T00:58:09;99380.00;;;18.27;94.95
13869;BME280;7004;48.206;16.402;2022-08-21T01:00:41;99386.97;;;18.20;95.44
13869;BME280;7004;48.206;16.402;2022-08-21T01:03:13;99381.38;;;18.13;95.48
13869;BME280;7004;48.206;16.402;2022-08-21T01:05:42;99390.69;;;18.71;92.55
13869;BME280;7004;48.206;16.402;2022-08-21T01:08:15;99388.94;;;18.18;94.96
13869;BME280;7004;48.206;16.402;2022-08-21T01:10:44;99392.16;;;18.21;94.99
13869;BME280;7004;48.206;16.402;2022-08-21T01:13:17;99382.13;;;18.23;95.63
13869;BME280;7004;48.206;16.402;2022-08-21T01:15:48;99380.91;;;18.36;94.57
13869;BME280;7004;48.206;16.402;2022-08-21T01:18:18;99375.56;;;18.36;94.47
13869;BME280;7004;48.206;16.402;2022-08-21T01:21:03;99374.78;;;18.43;94.00
13869;BME280;7004;48.206;16.402;2022-08-21T01:23:30;99374.66;;;18.97;92.23
13869;BME280;7004;48.206;16.402;2022-08-21T01:25:57;99373.28;;;18.93;91.76
13869;BME280;7004;48.206;16.402;2022-08-21T01:28:23;99374.50;;;18.54;93.10
13869;BME280;7004;48.206;16.402;2022-08-21T01:30:51;99366.50;;;18.81;91.35
13869;BME280;7004;48.206;16.402;2022-08-21T01:33:22;99370.22;;;18.62;92.81
13869;BME280;7004;48.206;16.402;2022-08-21T01:35:50;99367.84;;;18.76;92.34
13869;BME280;7004;48.206;16.402;2022-08-21T01:38:16;99372.88;;;18.62;93.26
13869;BME280;7004;48.206;16.402;2022-08-21T01:40:43;99375.16;;;18.48;94.05
13869;BME280;7004;48.206;16.402;2022-08-21T01:43:10;99369.09;;;18.46;94.65
13869;BME280;7004;48.206;16.402;2022-08-21T01:45:36;99363.88;;;18.63;93.26
13869;BME280;7004;48.206;16.402;2022-08-21T01:48:03;99357.16;;;18.59;93.85
13869;BME280;7004;48.206;16.402;2022-08-21T01:50:29;99345.97;;;18.63;94.32
13869;BME280;7004;48.206;16.402;2022-08-21T01:52:55;99344.41;;;18.52;95.65
13869;BME280;7004;48.206;16.402;2022-08-21T01:55:22;99334.50;;;19.05;92.67
13869;BME280;7004;48.206;16.402;2022-08-21T01:57:49;99344.31;;;18.44;96.40
13869;BME280;7004;48.206;16.402;2022-08-21T02:00:20;99340.47;;;18.21;97.50
13869;BME280;7004;48.206;16.402;2022-08-21T02:02:49;99339.94;;;18.35;96.31
13869;BME280;7004;48.206;16.402;2022-08-21T02:05:16;99340.78;;;18.18;97.29
13869;BME280;7004;48.206;16.402;2022-08-21T02:07:47;99333.03;;;18.76;94.78
13869;BME280;7004;48.206;16.402;2022-08-21T02:10:21;99338.06;;;18.09;97.99
13869;BME280;7004;48.206;16.402;2022-08-21T02:12:49;99326.91;;;18.40;96.71
13869;BME280;7004;48.206;16.402;2022-08-21T02:15:15;99335.00;;;18.22;98.12
13869;BME280;7004;48.206;16.402;2022-08-21T02:17:52;99327.75;;;18.15;99.14
13869;BME280;7004;48.206;16.402;2022-08-21T02:20:27;99321.47;;;18.24;98.79
13869;BME280;7004;48.206;16.402;2022-08-21T02:22:55;99322.63;;;18.47;97.69
13869;BME280;7004;48.206;16.402;2022-08-21T02:25:25;99318.94;;;18.22;97.38
13869;BME280;7004;48.206;16.402;2022-08-21T02:27:55;99318.78;;;18.24;97.33
13869;BME280;7004;48.206;16.402;2022-08-21T02:30:35;99323.97;;;18.25;97.59
13869;BME280;7004;48.206;16.402;2022-08-21T02:33:06;99321.38;;;18.16;97.88
13869;BME280;7004;48.206;16.402;2022-08-21T02:35:34;99321.69;;;18.12;98.33
13869;BME280;7004;48.206;16.402;2022-08-21T02:38:05;99328.19;;;18.10;98.77
13869;BME280;7004;48.206;16.402;2022-08-21T02:40:38;99334.47;;;18.19;98.00
13869;BME280;7004;48.206;16.402;2022-08-21T02:43:06;99322.09;;;18.00;99.23
13869;BME280;7004;48.206;16.402;2022-08-21T02:45:34;99327.56;;;17.90;100.00
13869;BME280;7004;48.206;16.402;2022-08-21T02:48:12;99326.53;;;17.91;100.00
13869;BME280;7004;48.206;16.402;2022-08-21T02:50:47;99324.88;;;17.90;100.00
13869;BME280;7004;48.206;16.402;2022-08-21T02:53:16;99331.59;;;17.94;99.53
13869;BME280;7004;48.206;16.402;2022-08-21T02:55:45;99322.50;;;17.87;100.00
13869;BME280;7004;48.206;16.402;2022-08-21T02:58:14;99325.91;;;17.97;99.83
13869;BME280;7004;48.206;16.402;2022-08-21T03:00:42;99329.75;;;17.95;99.66
13869;BME280;7004;48.206;16.402;2022-08-21T03:03:09;99330.16;;;18.26;97.89
13869;BME280;7004;48.206;16.402;2022-08-21T03:05:37;99329.72;;;18.12;99.08
13869;BME280;7004;48.206;16.402;2022-08-21T03:08:07;99331.19;;;18.07;99.05
13869;BME280;7004;48.206;16.402;2022-08-21T03:10:39;99332.41;;;17.95;99.38
13869;BME280;7004;48.206;16.402;2022-08-21T03:13:07;99341.00;;;17.98;99.73
13869;BME280;7004;48.206;16.402;2022-08-21T03:15:34;99336.06;;;18.29;99.33
13869;BME280;7004;48.206;16.402;2022-08-21T03:18:01;99340.19;;;18.24;98.75
13869;BME280;7004;48.206;16.402;2022-08-21T03:20:29;99334.94;;;17.96;99.49
13869;BME280;7004;48.206;16.402;2022-08-21T03:22:56;99347.94;;;18.09;99.02
13869;BME280;7004;48.206;16.402;2022-08-21T03:25:24;99333.41;;;18.11;98.68
13869;BME280;7004;48.206;16.402;2022-08-21T03:27:50;99343.34;;;18.01;98.93
13869;BME280;7004;48.206;16.402;2022-08-21T03:30:19;99341.81;;;17.99;98.35
13869;BME280;7004;48.206;16.402;2022-08-21T03:32:47;99336.53;;;18.07;98.62
13869;BME280;7004;48.206;16.402;2022-08-21T03:35:14;99347.38;;;18.05;98.66
13869;BME280;7004;48.206;16.402;2022-08-21T03:37:40;99340.59;;;17.93;99.58
13869;BME280;7004;48.206;16.402;2022-08-21T03:40:09;99335.78;;;17.97;99.87
13869;BME280;7004;48.206;16.402;2022-08-21T03:42:36;99338.03;;;17.74;100.00
13869;BME280;7004;48.206;16.402;2022-08-21T03:45:03;99333.28;;;17.95;99.56
13869;BME280;7004;48.206;16.402;2022-08-21T03:47:30;99334.63;;;17.99;100.00
13869;BME280;7004;48.206;16.402;2022-08-21T03:49:56;99341.59;;;17.92;99.59
13869;BME280;7004;48.206;16.402;2022-08-21T03:52:22;99343.25;;;17.75;100.00
13869;BME280;7004;48.206;16.402;2022-08-21T03:54:49;99331.91;;;17.91;100.00
13869;BME280;7004;48.206;16.402;2022-08-21T03:57:16;99347.38;;;18.05;99.23
13869;BME280;7004;48.206;16.402;2022-08-21T03:59:43;99345.41;;;18.07;99.49
13869;BME280;7004;48.206;16.402;2022-08-21T04:02:10;99357.19;;;17.97;98.04
13869;BME280;7004;48.206;16.402;2022-08-21T04:04:36;99352.28;;;18.10;97.60
13869;BME280;7004;48.206;16.402;2022-08-21T04:07:03;99361.16;;;17.93;98.66
13869;BME280;7004;48.206;16.402;2022-08-21T04:09:31;99360.16;;;17.94;98.59
13869;BME280;7004;48.206;16.402;2022-08-21T04:11:58;99358.31;;;18.12;97.78
13869;BME280;7004;48.206;16.402;2022-08-21T04:14:24;99366.97;;;18.06;97.57
13869;BME280;7004;48.206;16.402;2022-08-21T04:16:51;99363.22;;;17.99;98.20
13869;BME280;7004;48.206;16.402;2022-08-21T04:19:17;99365.06;;;17.98;98.40
13869;BME280;7004;48.206;16.402;2022-08-21T04:21:43;99371.31;;;17.89;98.26
13869;BME280;7004;48.206;16.402;2022-08-21T04:24:10;99375.91;;;17.97;98.29
13869;BME280;7004;48.206;16.402;2022-08-21T04:26:38;99375.50;;;17.92;98.86
13869;BME280;7004;48.206;16.402;2022-08-21T04:29:05;99365.97;;;17.89;98.77
13869;BME280;7004;48.206;16.402;2022-08-21T04:31:35;99376.66;;;18.07;98.19
13869;BME280;7004;48.206;16.402;2022-08-21T04:34:04;99382.75;;;17.99;97.92
13869;BME280;7004;48.206;16.402;2022-08-21T04:36:31;99374.22;;;17.96;98.36
13869;BME280;7004;48.206;16.402;2022-08-21T04:38:58;99381.31;;;18.05;97.62
13869;BME280;7004;48.206;16.402;2022-08-21T04:41:25;99375.38;;;17.93;98.06
13869;BME280;7004;48.206;16.402;2022-08-21T04:43:52;99381.94;;;17.99;97.73
13869;BME280;7004;48.206;16.402;2022-08-21T04:46:18;99383.53;;;18.09;97.08
13869;BME280;7004;48.206;16.402;2022-08-21T04:48:45;99371.31;;;18.07;97.26
13869;BME280;7004;48.206;16.402;2022-08-21T04:51:16;99369.69;;;18.14;96.85
13869;BME280;7004;48.206;16.402;2022-08-21T04:53:53;99373.72;;;18.18;96.66
13869;BME280;7004;48.206;16.402;2022-08-21T04:56:35;99376.69;;;18.33;95.55
13869;BME280;7004;48.206;16.402;2022-08-21T04:59:11;99369.13;;;18.28;96.41
13869;BME280;7004;48.206;16.402;2022-08-21T05:01:40;99375.13;;;18.22;96.27
13869;BME280;7004;48.206;16.402;2022-08-21T05:04:09;99371.41;;;18.93;93.40
13869;BME280;7004;48.206;16.402;2022-08-21T05:06:37;99380.44;;;18.84;92.37
13869;BME280;7004;48.206;16.402;2022-08-21T05:09:05;99376.47;;;18.96;93.73
13869;BME280;7004;48.206;16.402;2022-08-21T05:11:32;99379.38;;;18.77;93.46
13869;BME280;7004;48.206;16.402;2022-08-21T05:13:59;99381.69;;;19.06;92.89
13869;BME280;7004;48.206;16.402;2022-08-21T05:16:25;99376.97;;;18.92;92.71
13869;BME280;7004;48.206;16.402;2022-08-21T05:18:52;99379.34;;;19.03;91.74
13869;BME280;7004;48.206;16.402;2022-08-21T05:21:18;99378.16;;;19.82;89.22
13869;BME280;7004;48.206;16.402;2022-08-21T05:23:45;99380.63;;;19.25;88.42
13869;BME280;7004;48.206;16.402;2022-08-21T05:26:11;99384.19;;;19.34;89.62
13869;BME280;7004;48.206;16.402;2022-08-21T05:28:37;99374.53;;;19.57;88.48
13869;BME280;7004;48.206;16.402;2022-08-21T05:31:03;99378.03;;;19.58;87.06
13869;BME280;7004;48.206;16.402;2022-08-21T05:33:29;99380.44;;;19.18;89.05
13869;BME280;7004;48.206;16.402;2022-08-21T05:35:56;99373.44;;;19.26;87.99
13869;BME280;7004;48.206;16.402;2022-08-21T05:38:24;99385.09;;;19.59;86.49
13869;BME280;7004;48.206;16.402;2022-08-21T05:40:50;99375.81;;;20.12;83.92
13869;BME280;7004;48.206;16.402;2022-08-21T05:43:17;99371.81;;;20.16;84.57
13869;BME280;7004;48.206;16.402;2022-08-21T05:45:43;99369.19;;;19.65;85.51
13869;BME280;7004;48.206;16.402;2022-08-21T05:48:30;99368.81;;;19.52;86.50
13869;BME280;7004;48.206;16.402;2022-08-21T05:50:57;99372.91;;;19.22;88.77
13869;BME280;7004;48.206;16.402;2022-08-21T05:53:24;99369.09;;;19.83;84.53
13869;BME280;7004;48.206;16.402;2022-08-21T05:55:51;99375.81;;;19.37;88.16
13869;BME280;7004;48.206;16.402;2022-08-21T05:58:20;99379.13;;;19.81;86.87
13869;BME280;7004;48.206;16.402;2022-08-21T06:00:48;99375.69;;;19.55;86.30
13869;BME280;7004;48.206;16.402;2022-08-21T06:03:22;99384.72;;;19.46;88.20
13869;BME280;7004;48.206;16.402;2022-08-21T06:05:48;99379.19;;;20.14;84.89
13869;BME280;7004;48.206;16.402;2022-08-21T06:08:16;99382.19;;;20.27;84.24
13869;BME280;7004;48.206;16.402;2022-08-21T06:10:44;99388.88;;;19.74;87.41
13869;BME280;7004;48.206;16.402;2022-08-21T06:13:11;99382.16;;;19.78;85.84
13869;BME280;7004;48.206;16.402;2022-08-21T06:15:38;99381.53;;;19.50;88.03
13869;BME280;7004;48.206;16.402;2022-08-21T06:18:05;99391.00;;;19.71;87.19
13869;BME280;7004;48.206;16.402;2022-08-21T06:20:32;99388.72;;;19.41;88.55
13869;BME280;7004;48.206;16.402;2022-08-21T06:23:00;99395.13;;;19.49;86.50
13869;BME280;7004;48.206;16.402;2022-08-21T06:25:27;99390.13;;;19.54;86.79
13869;BME280;7004;48.206;16.402;2022-08-21T06:27:59;99397.13;;;20.14;83.90
13869;BME280;7004;48.206;16.402;2022-08-21T06:30:25;99385.38;;;20.06;84.59
13869;BME280;7004;48.206;16.402;2022-08-21T06:32:51;99389.75;;;19.49;86.19
13869;BME280;7004;48.206;16.402;2022-08-21T06:35:17;99387.72;;;19.42;87.18
13869;BME280;7004;48.206;16.402;2022-08-21T06:37:43;99389.91;;;19.47;86.52
13869;BME280;7004;48.206;16.402;2022-08-21T06:40:10;99393.44;;;19.56;86.28
13869;BME280;7004;48.206;16.402;2022-08-21T06:42:36;99398.44;;;20.10;82.97
13869;BME280;7004;48.206;16.402;2022-08-21T06:45:03;99403.81;;;19.93;84.70
13869;BME280;7004;48.206;16.402;2022-08-21T06:47:30;99402.84;;;19.60;85.40
13869;BME280;7004;48.206;16.402;2022-08-21T06:49:56;99397.41;;;19.70;85.28
13869;BME280;7004;48.206;16.402;2022-08-21T06:52:22;99396.28;;;19.46;86.22
13869;BME280;7004;48.206;16.402;2022-08-21T06:54:48;99396.47;;;19.53;86.84
13869;BME280;7004;48.206;16.402;2022-08-21T06:57:15;99395.56;;;19.78;86.06
13869;BME280;7004;48.206;16.402;2022-08-21T06:59:42;99391.88;;;19.79;85.49
13869;BME280;7004;48.206;16.402;2022-08-21T07:02:08;99390.94;;;19.54;86.42
13869;BME280;7004;48.206;16.402;2022-08-21T07:04:34;99397.41;;;19.86;85.22
13869;BME280;7004;48.206;16.402;2022-08-21T07:07:01;99405.63;;;19.42;86.73
13869;BME280;7004;48.206;16.402;2022-08-21T07:09:27;99401.91;;;19.69;85.84
13869;BME280;7004;48.206;16.402;2022-08-21T07:11:55;99411.81;;;19.34;87.51
13869;BME280;7004;48.206;16.402;2022-08-21T07:14:22;99396.63;;;19.43;87.25
13869;BME280;7004;48.206;16.402;2022-08-21T07:16:49;99412.81;;;19.33;87.62
13869;BME280;7004;48.206;16.402;2022-08-21T07:19:15;99393.09;;;19.51;86.78
13869;BME280;7004;48.206;16.402;2022-08-21T07:21:41;99405.16;;;19.47;87.08
13869;BME280;7004;48.206;16.402;2022-08-21T07:24:07;99410.53;;;19.47;87.00
13869;BME280;7004;48.206;16.402;2022-08-21T07:26:34;99414.81;;;19.74;85.96
13869;BME280;7004;48.206;16.402;2022-08-21T07:29:00;99409.06;;;19.60;85.95
13869;BME280;7004;48.206;16.402;2022-08-21T07:31:27;99412.38;;;19.46;87.49
13869;BME280;7004;48.206;16.402;2022-08-21T07:33:53;99416.38;;;19.50;86.54
13869;BME280;7004;48.206;16.402;2022-08-21T07:36:20;99408.69;;;19.47;86.91
13869;BME280;7004;48.206;16.402;2022-08-21T07:38:47;99414.81;;;19.31;88.44
13869;BME280;7004;48.206;16.402;2022-08-21T07:41:18;99415.66;;;19.32;88.25
13869;BME280;7004;48.206;16.402;2022-08-21T07:43:45;99411.72;;;19.52;87.08
13869;BME280;7004;48.206;16.402;2022-08-21T07:46:13;99406.66;;;20.00;84.81
13869;BME280;7004;48.206;16.402;2022-08-21T07:48:39;99399.63;;;19.48;87.12
13869;BME280;7004;48.206;16.402;2022-08-21T07:51:09;99411.09;;;19.24;88.56
13869;BME280;7004;48.206;16.402;2022-08-21T07:53:37;99410.53;;;19.12;89.70
13869;BME280;7004;48.206;16.402;2022-08-21T07:56:06;99418.78;;;19.19;89.53
13869;BME280;7004;48.206;16.402;2022-08-21T07:58:33;99409.28;;;19.67;86.82
13869;BME280;7004;48.206;16.402;2022-08-21T08:01:00;99416.53;;;19.06;91.06
13869;BME280;7004;48.206;16.402;2022-08-21T08:03:26;99413.06;;;19.56;89.70
13869;BME280;7004;48.206;16.402;2022-08-21T08:05:52;99410.34;;;19.48;90.16
13869;BME280;7004;48.206;16.402;2022-08-21T08:08:18;99403.66;;;20.44;86.42
13869;BME280;7004;48.206;16.402;2022-08-21T08:10:45;99402.16;;;20.00;87.80
13869;BME280;7004;48.206;16.402;2022-08-21T08:13:13;99400.81;;;20.45;87.76
13869;BME280;7004;48.206;16.402;2022-08-21T08:15:40;99398.81;;;20.47;88.14
13869;BME280;7004;48.206;16.402;2022-08-21T08:18:06;99390.06;;;20.04;91.31
13869;BME280;7004;48.206;16.402;2022-08-21T08:20:32;99392.75;;;19.96;92.01
13869;BME280;7004;48.206;16.402;2022-08-21T08:22:59;99391.91;;;20.28;90.91
13869;BME280;7004;48.206;16.402;2022-08-21T08:25:26;99393.56;;;19.80;93.87
13869;BME280;7004;48.206;16.402;2022-08-21T08:27:52;99387.28;;;19.63;94.22
13869;BME280;7004;48.206;16.402;2022-08-21T08:30:20;99389.84;;;19.81;95.10
13869;BME280;7004;48.206;16.402;2022-08-21T08:32:47;99395.22;;;19.31;96.11
13869;BME280;7004;48.206;16.402;2022-08-21T08:35:14;99391.91;;;19.45;95.00
13869;BME280;7004;48.206;16.402;2022-08-21T08:37:41;99394.06;;;19.33;94.61
13869;BME280;7004;48.206;16.402;2022-08-21T08:43:12;99384.50;;;19.90;91.21
13869;BME280;7004;48.206;16.402;2022-08-21T08:45:42;99383.31;;;19.84;90.88
13869;BME280;7004;48.206;16.402;2022-08-21T08:48:14;99386.84;;;19.84;89.97
13869;BME280;7004;48.206;16.402;2022-08-21T08:50:54;99389.91;;;20.14;88.67
13869;BME280;7004;48.206;16.402;2022-08-21T08:53:29;99393.13;;;20.34;87.54
13869;BME280;7004;48.206;16.402;2022-08-21T08:55:56;99386.84;;;19.84;90.13
13869;BME280;7004;48.206;16.402;2022-08-21T08:58:28;99389.75;;;20.57;86.62
13869;BME280;7004;48.206;16.402;2022-08-21T09:00:59;99387.25;;;20.55;86.45
13869;BME280;7004;48.206;16.402;2022-08-21T09:03:27;99395.09;;;20.48;86.64
13869;BME280;7004;48.206;16.402;2022-08-21T09:09:22;99394.59;;;20.53;86.24
13869;BME280;7004;48.206;16.402;2022-08-21T09:12:17;99403.31;;;20.22;89.22
13869;BME280;7004;48.206;16.402;2022-08-21T09:15:51;99395.47;;;20.21;92.19
13869;BME280;7004;48.206;16.402;2022-08-21T09:21:19;99394.88;;;19.84;96.00
13869;BME280;7004;48.206;16.402;2022-08-21T09:24:09;99385.16;;;19.75;99.50
13869;BME280;7004;48.206;16.402;2022-08-21T09:29:28;99387.50;;;19.70;100.00
13869;BME280;7004;48.206;16.402;2022-08-21T09:31:56;99395.50;;;19.19;100.00
13869;BME280;7004;48.206;16.402;2022-08-21T09:34:30;99382.72;;;20.39;100.00
13869;BME280;7004;48.206;16.402;2022-08-21T09:36:57;99383.31;;;19.68;100.00
13869;BME280;7004;48.206;16.402;2022-08-21T09:39:31;99385.03;;;19.42;100.00
13869;BME280;7004;48.206;16.402;2022-08-21T09:42:05;99375.13;;;20.02;100.00
13869;BME280;7004;48.206;16.402;2022-08-21T09:44:36;99374.97;;;19.95;100.00
13869;BME280;7004;48.206;16.402;2022-08-21T09:47:10;99384.84;;;19.95;100.00
13869;BME280;7004;48.206;16.402;2022-08-21T09:49:41;99376.47;;;20.39;100.00
13869;BME280;7004;48.206;16.402;2022-08-21T09:52:22;99361.78;;;20.99;98.89
13869;BME280;7004;48.206;16.402;2022-08-21T09:54:54;99366.53;;;20.80;100.00
13869;BME280;7004;48.206;16.402;2022-08-21T09:57:30;99359.09;;;21.07;94.16
13869;BME280;7004;48.206;16.402;2022-08-21T10:00:28;99352.31;;;21.58;91.05
13869;BME280;7004;48.206;16.402;2022-08-21T10:03:20;99350.38;;;21.44;91.04
13869;BME280;7004;48.206;16.402;2022-08-21T10:08:28;99348.88;;;21.33;91.83
13869;BME280;7004;48.206;16.402;2022-08-21T10:11:02;99353.47;;;20.69;92.92
13869;BME280;7004;48.206;16.402;2022-08-21T10:14:00;99363.88;;;20.72;93.42
13869;BME280;7004;48.206;16.402;2022-08-21T10:16:48;99352.97;;;20.73;93.42
13869;BME280;7004;48.206;16.402;2022-08-21T10:20:03;99361.50;;;20.93;93.10
13869;BME280;7004;48.206;16.402;2022-08-21T10:25:21;99361.38;;;20.38;95.78
13869;BME280;7004;48.206;16.402;2022-08-21T10:33:33;99369.50;;;19.54;100.00
13869;BME280;7004;48.206;16.402;2022-08-21T10:36:25;99375.47;;;20.15;98.98
13869;BME280;7004;48.206;16.402;2022-08-21T10:39:36;99367.94;;;19.35;100.00
13869;BME280;7004;48.206;16.402;2022-08-21T10:45:07;99381.81;;;19.31;100.00
13869;BME280;7004;48.206;16.402;2022-08-21T10:47:47;99372.16;;;20.13;99.13
13869;BME280;7004;48.206;16.402;2022-08-21T10:50:56;99375.06;;;19.18;100.00
13869;BME280;7004;48.206;16.402;2022-08-21T10:56:27;99373.22;;;19.61;100.00
13869;BME280;7004;48.206;16.402;2022-08-21T11:02:26;99377.00;;;20.10;100.00
13869;BME280;7004;48.206;16.402;2022-08-21T11:05:04;99392.19;;;19.26;100.00
13869;BME280;7004;48.206;16.402;2022-08-21T11:07:48;99378.63;;;19.70;100.00
13869;BME280;7004;48.206;16.402;2022-08-21T11:10:33;99386.50;;;18.94;100.00
13869;BME280;7004;48.206;16.402;2022-08-21T11:13:06;99379.13;;;19.90;100.00
13869;BME280;7004;48.206;16.402;2022-08-21T11:18:29;99363.38;;;19.86;100.00
13869;BME280;7004;48.206;16.402;2022-08-21T11:21:38;99360.53;;;20.45;97.37
13869;BME280;7004;48.206;16.402;2022-08-21T11:24:24;99363.59;;;20.34;93.70
13869;BME280;7004;48.206;16.402;2022-08-21T11:30:02;99355.03;;;20.14;92.01
13869;BME280;7004;48.206;16.402;2022-08-21T11:35:46;99364.75;;;20.40;89.90
13869;BME280;7004;48.206;16.402;2022-08-21T11:38:31;99356.66;;;20.81;89.79
13869;BME280;7004;48.206;16.402;2022-08-21T11:44:42;99365.22;;;20.51;91.05
13869;BME280;7004;48.206;16.402;2022-08-21T11:47:46;99364.75;;;20.56;90.30
13869;BME280;7004;48.206;16.402;2022-08-21T11:50:28;99362.75;;;20.58;88.96
13869;BME280;7004;48.206;16.402;2022-08-21T11:55:47;99363.06;;;20.30;90.16
13869;BME280;7004;48.206;16.402;2022-08-21T11:58:25;99355.50;;;20.26;89.34
13869;BME280;7004;48.206;16.402;2022-08-21T12:01:23;99365.91;;;20.78;88.83
13869;BME280;7004;48.206;16.402;2022-08-21T12:04:27;99365.56;;;20.73;89.18
13869;BME280;7004;48.206;16.402;2022-08-21T12:06:56;99373.47;;;20.42;90.14
13869;BME280;7004;48.206;16.402;2022-08-21T12:14:45;99374.47;;;20.65;87.09
13869;BME280;7004;48.206;16.402;2022-08-21T12:17:26;99378.31;;;20.71;87.90
13869;BME280;7004;48.206;16.402;2022-08-21T12:20:39;99379.06;;;21.12;86.57
13869;BME280;7004;48.206;16.402;2022-08-21T12:25:43;99380.34;;;20.20;89.20
13869;BME280;7004;48.206;16.402;2022-08-21T12:28:14;99381.69;;;20.40;88.86
13869;BME280;7004;48.206;16.402;2022-08-21T12:30:44;99390.56;;;20.73;87.53
13869;BME280;7004;48.206;16.402;2022-08-21T12:33:36;99406.69;;;20.33;89.24
13869;BME280;7004;48.206;16.402;2022-08-21T12:36:14;99388.97;;;19.64;91.84
13869;BME280;7004;48.206;16.402;2022-08-21T12:41:34;99388.56;;;20.10;88.74
13869;BME280;7004;48.206;16.402;2022-08-21T12:44:13;99390.38;;;19.85;90.18
13869;BME280;7004;48.206;16.402;2022-08-21T12:46:57;99384.56;;;19.55;92.51
13869;BME280;7004;48.206;16.402;2022-08-21T12:49:36;99380.84;;;19.48;93.42
13869;BME280;7004;48.206;16.402;2022-08-21T12:52:30;99383.03;;;19.45;93.27
13869;BME280;7004;48.206;16.402;2022-08-21T12:54:56;99384.78;;;19.19;95.29
13869;BME280;7004;48.206;16.402;2022-08-21T12:57:28;99378.91;;;19.16;94.43
13869;BME280;7004;48.206;16.402;2022-08-21T13:00:00;99377.09;;;19.67;93.40
13869;BME280;7004;48.206;16.402;2022-08-21T13:02:32;99374.34;;;19.51;93.29
13869;BME280;7004;48.206;16.402;2022-08-21T13:05:04;99379.34;;;20.21;89.96
13869;BME280;7004;48.206;16.402;2022-08-21T13:07:35;99382.19;;;20.19;90.28
13869;BME280;7004;48.206;16.402;2022-08-21T13:10:22;99381.34;;;20.02;89.69
13869;BME280;7004;48.206;16.402;2022-08-21T13:12:49;99382.16;;;19.95;90.97
13869;BME280;7004;48.206;16.402;2022-08-21T13:15:30;99389.59;;;19.58;90.79
13869;BME280;7004;48.206;16.402;2022-08-21T13:17:58;99378.19;;;19.48;91.83
13869;BME280;7004;48.206;16.402;2022-08-21T13:20:39;99382.44;;;19.59;91.02
13869;BME280;7004;48.206;16.402;2022-08-21T13:23:36;99386.53;;;19.37;91.92
13869;BME280;7004;48.206;16.402;2022-08-21T13:26:19;99377.53;;;19.46;91.50
13869;BME280;7004;48.206;16.402;2022-08-21T13:28:46;99392.41;;;19.40;91.13
13869;BME280;7004;48.206;16.402;2022-08-21T13:31:20;99387.00;;;19.75;90.86
13869;BME280;7004;48.206;16.402;2022-08-21T13:33:48;99372.94;;;19.81;88.71
13869;BME280;7004;48.206;16.402;2022-08-21T13:36:39;99379.66;;;19.77;89.35
13869;BME280;7004;48.206;16.402;2022-08-21T13:39:18;99384.06;;;20.19;86.93
13869;BME280;7004;48.206;16.402;2022-08-21T13:41:48;99380.00;;;19.82;88.71
13869;BME280;7004;48.206;16.402;2022-08-21T13:44:24;99379.31;;;19.72;88.81
13869;BME280;7004;48.206;16.402;2022-08-21T13:46:59;99386.00;;;19.84;88.54
13869;BME280;7004;48.206;16.402;2022-08-21T13:49:38;99384.53;;;19.98;88.40
13869;BME280;7004;48.206;16.402;2022-08-21T13:52:20;99377.47;;;19.80;88.67
13869;BME280;7004;48.206;16.402;2022-08-21T13:55:12;99385.16;;;19.75;89.26
13869;BME280;7004;48.206;16.402;2022-08-21T13:57:40;99383.69;;;20.46;86.26
13869;BME280;7004;48.206;16.402;2022-08-21T14:00:42;99390.41;;;20.50;85.50
13869;BME280;7004;48.206;16.402;2022-08-21T14:03:26;99382.53;;;20.41;86.21
13869;BME280;7004;48.206;16.402;2022-08-21T14:05:53;99377.16;;;20.16;86.89
13869;BME280;7004;48.206;16.402;2022-08-21T14:08:39;99380.03;;;20.56;85.25
13869;BME280;7004;48.206;16.402;2022-08-21T14:11:12;99384.22;;;20.09;86.21
13869;BME280;7004;48.206;16.402;2022-08-21T14:13:43;99375.66;;;20.38;84.42
13869;BME280;7004;48.206;16.402;2022-08-21T14:16:52;99376.69;;;20.21;85.38
13869;BME280;7004;48.206;16.402;2022-08-21T14:19:23;99382.34;;;20.83;83.42
13869;BME280;7004;48.206;16.402;2022-08-21T14:21:50;99381.88;;;20.63;81.88
13869;BME280;7004;48.206;16.402;2022-08-21T14:27:04;99377.22;;;21.05;80.51